sensor_id;sensor_type;location;lat;lon;timestamp;pressure;altitude;pressure_sealevel;temperature;humidity
4449;BME280;2237;51.870;6.160;2023-05-20T00:00:15;102302.38;;;16.61;73.21
4449;BME280;2237;51.870;6.160;2023-05-20T00:02:41;102290.16;;;16.59;73.02
4449;BME280;2237;51.870;6.160;2023-05-20T00:05:08;102296.41;;;16.52;73.85
4449;BME280;2237;51.870;6.160;2023-05-20T00:07:34;102295.66;;;16.48;74.44
4449;BME280;2237;51.870;6.160;2023-05-20T00:10:01;102307.81;;;16.54;74.21
4449;BME280;2237;51.870;6.160;2023-05-20T00:12:27;102300.75;;;16.56;74.70
4449;BME280;2237;51.870;6.160;2023-05-20T00:14:54;102297.31;;;16.54;74.82
4449;BME280;2237;51.870;6.160;2023-05-20T00:17:21;102297.25;;;16.55;76.28
4449;BME280;2237;51.870;6.160;2023-05-20T00:19:47;102299.78;;;16.60;75.42
4449;BME280;2237;51.870;6.160;2023-05-20T00:22:14;102298.03;;;16.59;75.76
4449;BME280;2237;51.870;6.160;2023-05-20T00:24:40;102291.84;;;16.61;75.40
4449;BME280;2237;51.870;6.160;2023-05-20T00:27:07;102299.84;;;16.57;76.46
4449;BME280;2237;51.870;6.160;2023-05-20T00:29:33;102301.56;;;16.58;76.49
4449;BME280;2237;51.870;6.160;2023-05-20T00:32:00;102292.03;;;16.52;77.37
4449;BME280;2237;51.870;6.160;2023-05-20T00:34:26;102300.03;;;16.48;77.47
4449;BME280;2237;51.870;6.160;2023-05-20T00:36:53;102288.72;;;16.44;77.86
4449;BME280;2237;51.870;6.160;2023-05-20T00:39:19;102294.03;;;16.41;78.58
4449;BME280;2237;51.870;6.160;2023-05-20T00:41:45;102291.53;;;16.36;79.25
4449;BME280;2237;51.870;6.160;2023-05-20T00:44:12;102285.56;;;16.28;79.21
4449;BME280;2237;51.870;6.160;2023-05-20T00:46:38;102289.06;;;16.29;80.11
4449;BME280;2237;51.870;6.160;2023-05-20T00:49:05;102288.25;;;16.25;81.26
4449;BME280;2237;51.870;6.160;2023-05-20T00:51:32;102284.84;;;16.22;81.88
4449;BME280;2237;51.870;6.160;2023-05-20T00:53:58;102283.06;;;16.24;82.17
4449;BME280;2237;51.870;6.160;2023-05-20T00:56:25;102284.72;;;16.28;81.15
4449;BME280;2237;51.870;6.160;2023-05-20T00:58:52;102283.81;;;16.29;81.51
4449;BME280;2237;51.870;6.160;2023-05-20T01:01:18;102283.91;;;16.24;81.88
4449;BME280;2237;51.870;6.160;2023-05-20T01:03:45;102280.44;;;16.22;82.43
4449;BME280;2237;51.870;6.160;2023-05-20T01:06:12;102283.19;;;16.18;83.18
4449;BME280;2237;51.870;6.160;2023-05-20T01:08:38;102285.78;;;16.19;83.49
4449;BME280;2237;51.870;6.160;2023-05-20T01:11:07;102288.50;;;16.16;83.74
4449;BME280;2237;51.870;6.160;2023-05-20T01:13:44;102280.56;;;16.18;84.33
4449;BME280;2237;51.870;6.160;2023-05-20T01:16:13;102286.88;;;16.09;85.29
4449;BME280;2237;51.870;6.160;2023-05-20T01:18:44;102285.06;;;16.11;84.55
4449;BME280;2237;51.870;6.160;2023-05-20T01:21:14;102289.44;;;16.12;84.86
4449;BME280;2237;51.870;6.160;2023-05-20T01:23:41;102292.03;;;16.14;84.59
4449;BME280;2237;51.870;6.160;2023-05-20T01:26:08;102266.69;;;16.11;84.33
4449;BME280;2237;51.870;6.160;2023-05-20T01:28:39;102279.81;;;16.13;85.12
4449;BME280;2237;51.870;6.160;2023-05-20T01:31:11;102279.81;;;16.13;85.52
4449;BME280;2237;51.870;6.160;2023-05-20T01:33:39;102279.03;;;16.08;86.29
4449;BME280;2237;51.870;6.160;2023-05-20T01:36:08;102276.47;;;16.05;86.63
4449;BME280;2237;51.870;6.160;2023-05-20T01:38:35;102279.19;;;16.00;87.03
4449;BME280;2237;51.870;6.160;2023-05-20T01:41:04;102276.50;;;16.03;86.69
4449;BME280;2237;51.870;6.160;2023-05-20T01:43:31;102274.81;;;15.99;87.03
4449;BME280;2237;51.870;6.160;2023-05-20T01:45:58;102278.38;;;15.98;87.11
4449;BME280;2237;51.870;6.160;2023-05-20T01:48:24;102277.69;;;15.90;87.95
4449;BME280;2237;51.870;6.160;2023-05-20T01:50:51;102266.38;;;15.85;88.30
4449;BME280;2237;51.870;6.160;2023-05-20T01:53:17;102272.56;;;15.82;89.06
4449;BME280;2237;51.870;6.160;2023-05-20T01:55:43;102276.06;;;15.83;88.63
4449;BME280;2237;51.870;6.160;2023-05-20T01:58:10;102272.63;;;15.81;89.30
4449;BME280;2237;51.870;6.160;2023-05-20T02:00:36;102269.19;;;15.76;89.71
4449;BME280;2237;51.870;6.160;2023-05-20T02:03:03;102263.09;;;15.75;89.67
4449;BME280;2237;51.870;6.160;2023-05-20T02:05:29;102260.59;;;15.69;90.64
4449;BME280;2237;51.870;6.160;2023-05-20T02:07:56;102257.16;;;15.66;91.99
4449;BME280;2237;51.870;6.160;2023-05-20T02:10:22;102265.06;;;15.64;91.81
4449;BME280;2237;51.870;6.160;2023-05-20T02:12:49;102261.53;;;15.65;91.77
4449;BME280;2237;51.870;6.160;2023-05-20T02:15:15;102253.78;;;15.61;92.01
4449;BME280;2237;51.870;6.160;2023-05-20T02:17:41;102254.66;;;15.60;92.29
4449;BME280;2237;51.870;6.160;2023-05-20T02:20:09;102262.66;;;15.54;93.43
4449;BME280;2237;51.870;6.160;2023-05-20T02:22:35;102253.88;;;15.55;93.16
4449;BME280;2237;51.870;6.160;2023-05-20T02:25:01;102247.88;;;15.48;93.13
4449;BME280;2237;51.870;6.160;2023-05-20T02:27:28;102250.56;;;15.47;94.26
4449;BME280;2237;51.870;6.160;2023-05-20T02:29:55;102241.78;;;15.45;94.36
4449;BME280;2237;51.870;6.160;2023-05-20T02:32:22;102244.47;;;15.42;94.90
4449;BME280;2237;51.870;6.160;2023-05-20T02:34:54;102242.78;;;15.39;95.10
4449;BME280;2237;51.870;6.160;2023-05-20T02:37:20;102245.41;;;15.39;95.46
4449;BME280;2237;51.870;6.160;2023-05-20T02:39:46;102239.53;;;15.26;97.07
4449;BME280;2237;51.870;6.160;2023-05-20T02:42:13;102246.56;;;15.26;96.89
4449;BME280;2237;51.870;6.160;2023-05-20T02:44:39;102250.09;;;15.23;97.83
4449;BME280;2237;51.870;6.160;2023-05-20T02:47:06;102257.09;;;15.23;97.57
4449;BME280;2237;51.870;6.160;2023-05-20T02:49:32;102242.28;;;15.20;97.52
4449;BME280;2237;51.870;6.160;2023-05-20T02:51:59;102240.50;;;15.22;97.59
4449;BME280;2237;51.870;6.160;2023-05-20T02:54:25;102247.56;;;15.19;97.97
4449;BME280;2237;51.870;6.160;2023-05-20T02:56:51;102243.25;;;15.15;98.20
4449;BME280;2237;51.870;6.160;2023-05-20T02:59:18;102231.91;;;15.13;98.40
4449;BME280;2237;51.870;6.160;2023-05-20T03:01:44;102244.16;;;15.12;98.49
4449;BME280;2237;51.870;6.160;2023-05-20T03:04:11;102230.22;;;15.10;98.28
4449;BME280;2237;51.870;6.160;2023-05-20T03:06:37;102237.22;;;15.10;98.72
4449;BME280;2237;51.870;6.160;2023-05-20T03:09:09;102239.94;;;15.04;99.72
4449;BME280;2237;51.870;6.160;2023-05-20T03:11:35;102235.63;;;15.01;99.68
4449;BME280;2237;51.870;6.160;2023-05-20T03:14:02;102240.00;;;15.02;99.65
4449;BME280;2237;51.870;6.160;2023-05-20T03:16:28;102238.31;;;14.98;100.00
4449;BME280;2237;51.870;6.160;2023-05-20T03:18:54;102236.59;;;14.97;99.95
4449;BME280;2237;51.870;6.160;2023-05-20T03:21:21;102237.47;;;14.96;100.00
4449;BME280;2237;51.870;6.160;2023-05-20T03:23:49;102239.22;;;14.96;100.00
4449;BME280;2237;51.870;6.160;2023-05-20T03:26:15;102245.56;;;14.86;100.00
4449;BME280;2237;51.870;6.160;2023-05-20T03:28:42;102233.41;;;14.79;100.00
4449;BME280;2237;51.870;6.160;2023-05-20T03:31:08;102239.53;;;14.78;100.00
4449;BME280;2237;51.870;6.160;2023-05-20T03:33:34;102247.44;;;14.76;100.00
4449;BME280;2237;51.870;6.160;2023-05-20T03:36:01;102249.25;;;14.74;100.00
4449;BME280;2237;51.870;6.160;2023-05-20T03:38:28;102246.69;;;14.71;100.00
4449;BME280;2237;51.870;6.160;2023-05-20T03:40:55;102244.88;;;14.73;100.00
4449;BME280;2237;51.870;6.160;2023-05-20T03:43:22;102244.94;;;14.70;100.00
4449;BME280;2237;51.870;6.160;2023-05-20T03:45:48;102245.81;;;14.69;100.00
4449;BME280;2237;51.870;6.160;2023-05-20T03:48:14;102245.91;;;14.64;100.00
4449;BME280;2237;51.870;6.160;2023-05-20T03:50:41;102239.88;;;14.58;100.00
4449;BME280;2237;51.870;6.160;2023-05-20T03:53:07;102239.88;;;14.58;100.00
4449;BME280;2237;51.870;6.160;2023-05-20T03:55:34;102242.50;;;14.58;100.00
4449;BME280;2237;51.870;6.160;2023-05-20T03:58:01;102243.38;;;14.57;100.00
4449;BME280;2237;51.870;6.160;2023-05-20T04:00:27;102243.47;;;14.54;100.00
4449;BME280;2237;51.870;6.160;2023-05-20T04:02:57;102244.25;;;14.57;100.00
4449;BME280;2237;51.870;6.160;2023-05-20T04:05:23;102255.72;;;14.52;100.00
4449;BME280;2237;51.870;6.160;2023-05-20T04:07:50;102246.16;;;14.49;100.00
4449;BME280;2237;51.870;6.160;2023-05-20T04:10:18;102253.94;;;14.54;100.00
4449;BME280;2237;51.870;6.160;2023-05-20T04:12:45;102248.63;;;14.57;100.00
4449;BME280;2237;51.870;6.160;2023-05-20T04:15:12;102254.78;;;14.54;100.00
4449;BME280;2237;51.870;6.160;2023-05-20T04:17:38;102250.47;;;14.53;100.00
4449;BME280;2237;51.870;6.160;2023-05-20T04:20:06;102244.41;;;14.50;100.00
4449;BME280;2237;51.870;6.160;2023-05-20T04:22:33;102255.72;;;14.52;100.00
4449;BME280;2237;51.870;6.160;2023-05-20T04:24:59;102262.69;;;14.51;100.00
4449;BME280;2237;51.870;6.160;2023-05-20T04:27:28;102255.75;;;14.49;100.00
4449;BME280;2237;51.870;6.160;2023-05-20T04:29:55;102253.09;;;14.52;100.00
4449;BME280;2237;51.870;6.160;2023-05-20T04:32:23;102258.31;;;14.53;100.00
4449;BME280;2237;51.870;6.160;2023-05-20T04:34:51;102252.31;;;14.47;100.00
4449;BME280;2237;51.870;6.160;2023-05-20T04:37:19;102257.53;;;14.47;100.00
4449;BME280;2237;51.870;6.160;2023-05-20T04:39:46;102250.59;;;14.43;100.00
4449;BME280;2237;51.870;6.160;2023-05-20T04:42:15;102243.66;;;14.42;100.00
4449;BME280;2237;51.870;6.160;2023-05-20T04:44:43;102251.47;;;14.45;100.00
4449;BME280;2237;51.870;6.160;2023-05-20T04:47:13;102255.66;;;14.55;100.00
4449;BME280;2237;51.870;6.160;2023-05-20T04:49:40;102248.72;;;14.54;100.00
4449;BME280;2237;51.870;6.160;2023-05-20T04:52:07;102255.63;;;14.58;100.00
4449;BME280;2237;51.870;6.160;2023-05-20T04:54:33;102243.38;;;14.57;100.00
4449;BME280;2237;51.870;6.160;2023-05-20T04:57:00;102250.31;;;14.61;100.00
4449;BME280;2237;51.870;6.160;2023-05-20T04:59:26;102246.88;;;14.57;100.00
4449;BME280;2237;51.870;6.160;2023-05-20T05:01:53;102243.34;;;14.60;100.00
4449;BME280;2237;51.870;6.160;2023-05-20T05:04:19;102249.34;;;14.66;100.00
4449;BME280;2237;51.870;6.160;2023-05-20T05:06:48;102253.63;;;14.74;100.00
4449;BME280;2237;51.870;6.160;2023-05-20T05:09:15;102255.28;;;14.79;100.00
4449;BME280;2237;51.870;6.160;2023-05-20T05:11:41;102250.06;;;14.76;100.00
4449;BME280;2237;51.870;6.160;2023-05-20T05:14:08;102235.22;;;14.77;100.00
4449;BME280;2237;51.870;6.160;2023-05-20T05:16:34;102242.06;;;14.85;100.00
4449;BME280;2237;51.870;6.160;2023-05-20T05:19:01;102241.34;;;14.76;100.00
4449;BME280;2237;51.870;6.160;2023-05-20T05:21:27;102236.00;;;14.80;100.00
4449;BME280;2237;51.870;6.160;2023-05-20T05:23:53;102238.56;;;14.85;100.00
4449;BME280;2237;51.870;6.160;2023-05-20T05:26:23;102231.47;;;14.90;100.00
4449;BME280;2237;51.870;6.160;2023-05-20T05:28:49;102240.88;;;15.01;100.00
4449;BME280;2237;51.870;6.160;2023-05-20T05:31:16;102231.16;;;15.08;100.00
4449;BME280;2237;51.870;6.160;2023-05-20T05:33:42;102237.03;;;15.20;100.00
4449;BME280;2237;51.870;6.160;2023-05-20T05:36:08;102239.56;;;15.25;100.00
4449;BME280;2237;51.870;6.160;2023-05-20T05:38:35;102232.50;;;15.28;100.00
4449;BME280;2237;51.870;6.160;2023-05-20T05:41:01;102229.69;;;15.38;100.00
4449;BME280;2237;51.870;6.160;2023-05-20T05:43:28;102226.38;;;15.28;100.00
4449;BME280;2237;51.870;6.160;2023-05-20T05:45:54;102226.16;;;15.39;100.00
4449;BME280;2237;51.870;6.160;2023-05-20T05:48:21;102237.47;;;15.44;100.00
4449;BME280;2237;51.870;6.160;2023-05-20T05:50:48;102237.22;;;15.56;100.00
4449;BME280;2237;51.870;6.160;2023-05-20T05:53:14;102224.31;;;15.47;100.00
4449;BME280;2237;51.870;6.160;2023-05-20T05:55:41;102235.41;;;15.59;100.00
4449;BME280;2237;51.870;6.160;2023-05-20T05:58:07;102234.75;;;15.50;100.00
4449;BME280;2237;51.870;6.160;2023-05-20T06:00:34;102224.06;;;15.57;100.00
4449;BME280;2237;51.870;6.160;2023-05-20T06:03:00;102233.53;;;15.66;100.00
4449;BME280;2237;51.870;6.160;2023-05-20T06:05:27;102217.66;;;15.70;100.00
4449;BME280;2237;51.870;6.160;2023-05-20T06:07:55;102223.59;;;15.80;99.45
4449;BME280;2237;51.870;6.160;2023-05-20T06:10:21;102224.22;;;15.91;98.66
4449;BME280;2237;51.870;6.160;2023-05-20T06:12:48;102223.06;;;16.03;97.70
4449;BME280;2237;51.870;6.160;2023-05-20T06:15:14;102222.13;;;16.07;97.77
4449;BME280;2237;51.870;6.160;2023-05-20T06:17:41;102222.25;;;16.01;97.56
4449;BME280;2237;51.870;6.160;2023-05-20T06:20:08;102224.47;;;16.17;96.68
4449;BME280;2237;51.870;6.160;2023-05-20T06:22:34;102220.69;;;16.30;95.73
4449;BME280;2237;51.870;6.160;2023-05-20T06:25:00;102217.06;;;16.34;95.68
4449;BME280;2237;51.870;6.160;2023-05-20T06:27:27;102215.22;;;16.38;95.16
4449;BME280;2237;51.870;6.160;2023-05-20T06:29:54;102210.56;;;16.49;94.26
4449;BME280;2237;51.870;6.160;2023-05-20T06:32:20;102193.84;;;16.52;93.15
4449;BME280;2237;51.870;6.160;2023-05-20T06:34:47;102196.47;;;16.53;93.59
4449;BME280;2237;51.870;6.160;2023-05-20T06:37:13;102195.31;;;16.65;93.57
4449;BME280;2237;51.870;6.160;2023-05-20T06:39:39;102203.06;;;16.71;92.99
4449;BME280;2237;51.870;6.160;2023-05-20T06:42:06;102201.94;;;16.79;91.95
4449;BME280;2237;51.870;6.160;2023-05-20T06:44:32;102199.94;;;16.89;92.01
4449;BME280;2237;51.870;6.160;2023-05-20T06:46:58;102204.13;;;16.96;91.22
4449;BME280;2237;51.870;6.160;2023-05-20T06:49:25;102189.22;;;16.97;90.09
4449;BME280;2237;51.870;6.160;2023-05-20T06:51:51;102196.16;;;16.99;89.65
4449;BME280;2237;51.870;6.160;2023-05-20T06:54:18;102196.13;;;17.01;88.50
4449;BME280;2237;51.870;6.160;2023-05-20T06:56:44;102187.28;;;17.03;87.61
4449;BME280;2237;51.870;6.160;2023-05-20T06:59:10;102198.22;;;17.19;87.52
4449;BME280;2237;51.870;6.160;2023-05-20T07:01:37;102195.66;;;17.17;87.04
4449;BME280;2237;51.870;6.160;2023-05-20T07:04:03;102198.03;;;17.26;85.36
4449;BME280;2237;51.870;6.160;2023-05-20T07:06:30;102188.97;;;17.06;86.74
4449;BME280;2237;51.870;6.160;2023-05-20T07:08:57;102197.38;;;17.18;85.63
4449;BME280;2237;51.870;6.160;2023-05-20T07:11:23;102189.38;;;17.21;88.23
4449;BME280;2237;51.870;6.160;2023-05-20T07:13:49;102186.31;;;17.36;86.51
4449;BME280;2237;51.870;6.160;2023-05-20T07:16:16;102182.78;;;17.37;84.65
4449;BME280;2237;51.870;6.160;2023-05-20T07:18:42;102182.69;;;17.40;83.37
4449;BME280;2237;51.870;6.160;2023-05-20T07:21:09;102176.47;;;17.43;82.24
4449;BME280;2237;51.870;6.160;2023-05-20T07:23:35;102185.88;;;17.51;83.02
4449;BME280;2237;51.870;6.160;2023-05-20T07:26:02;102182.94;;;17.62;83.72
4449;BME280;2237;51.870;6.160;2023-05-20T07:28:28;102178.69;;;17.58;80.85
4449;BME280;2237;51.870;6.160;2023-05-20T07:30:54;102173.28;;;17.63;81.28
4449;BME280;2237;51.870;6.160;2023-05-20T07:33:22;102175.72;;;17.69;80.39
4449;BME280;2237;51.870;6.160;2023-05-20T07:35:48;102173.38;;;17.60;77.41
4449;BME280;2237;51.870;6.160;2023-05-20T07:38:15;102161.59;;;17.71;77.69
4449;BME280;2237;51.870;6.160;2023-05-20T07:40:41;102156.94;;;17.79;78.72
4449;BME280;2237;51.870;6.160;2023-05-20T07:43:08;102158.66;;;17.82;76.79
4449;BME280;2237;51.870;6.160;2023-05-20T07:45:34;102158.53;;;17.85;76.57
4449;BME280;2237;51.870;6.160;2023-05-20T07:48:04;102152.88;;;17.97;76.20
4449;BME280;2237;51.870;6.160;2023-05-20T07:50:32;102146.59;;;18.01;73.67
4449;BME280;2237;51.870;6.160;2023-05-20T07:52:59;102144.78;;;18.03;73.48
4449;BME280;2237;51.870;6.160;2023-05-20T07:55:25;102158.16;;;17.97;74.73
4449;BME280;2237;51.870;6.160;2023-05-20T07:57:52;102162.31;;;18.04;73.76
4449;BME280;2237;51.870;6.160;2023-05-20T08:00:18;102162.66;;;18.21;72.17
4449;BME280;2237;51.870;6.160;2023-05-20T08:02:45;102164.31;;;18.24;70.85
4449;BME280;2237;51.870;6.160;2023-05-20T08:05:12;102164.38;;;18.22;70.57
4449;BME280;2237;51.870;6.160;2023-05-20T08:07:39;102151.22;;;18.21;71.82
4449;BME280;2237;51.870;6.160;2023-05-20T08:10:06;102159.75;;;18.29;69.57
4449;BME280;2237;51.870;6.160;2023-05-20T08:12:33;102142.44;;;18.20;69.62
4449;BME280;2237;51.870;6.160;2023-05-20T08:14:59;102154.44;;;18.30;70.48
4449;BME280;2237;51.870;6.160;2023-05-20T08:17:25;102146.31;;;18.36;69.85
4449;BME280;2237;51.870;6.160;2023-05-20T08:19:52;102151.28;;;18.45;71.69
4449;BME280;2237;51.870;6.160;2023-05-20T08:22:18;102143.25;;;18.50;71.04
4449;BME280;2237;51.870;6.160;2023-05-20T08:24:45;102142.94;;;18.59;70.01
4449;BME280;2237;51.870;6.160;2023-05-20T08:27:11;102156.88;;;18.63;67.35
4449;BME280;2237;51.870;6.160;2023-05-20T08:29:38;102142.63;;;18.68;65.74
4449;BME280;2237;51.870;6.160;2023-05-20T08:32:04;102152.63;;;18.83;65.23
4449;BME280;2237;51.870;6.160;2023-05-20T08:34:31;102146.59;;;18.80;63.35
4449;BME280;2237;51.870;6.160;2023-05-20T08:36:57;102144.56;;;18.63;64.16
4449;BME280;2237;51.870;6.160;2023-05-20T08:39:24;102148.00;;;18.65;63.66
4449;BME280;2237;51.870;6.160;2023-05-20T08:41:52;102141.63;;;18.71;63.94
4449;BME280;2237;51.870;6.160;2023-05-20T08:44:20;102137.50;;;18.88;63.46
4449;BME280;2237;51.870;6.160;2023-05-20T08:46:46;102141.00;;;18.89;60.36
4449;BME280;2237;51.870;6.160;2023-05-20T08:49:14;102140.72;;;18.96;59.35
4449;BME280;2237;51.870;6.160;2023-05-20T08:51:40;102142.34;;;19.00;58.19
4449;BME280;2237;51.870;6.160;2023-05-20T08:54:08;102129.63;;;19.10;57.17
4449;BME280;2237;51.870;6.160;2023-05-20T08:56:37;102143.38;;;19.19;56.61
4449;BME280;2237;51.870;6.160;2023-05-20T08:59:04;102128.63;;;19.14;55.28
4449;BME280;2237;51.870;6.160;2023-05-20T09:01:32;102134.53;;;19.21;55.88
4449;BME280;2237;51.870;6.160;2023-05-20T09:04:00;102136.88;;;19.28;56.74
4449;BME280;2237;51.870;6.160;2023-05-20T09:06:44;102135.63;;;19.38;55.50
4449;BME280;2237;51.870;6.160;2023-05-20T09:09:12;102125.88;;;19.40;54.98
4449;BME280;2237;51.870;6.160;2023-05-20T09:11:40;102124.31;;;19.35;54.74
4449;BME280;2237;51.870;6.160;2023-05-20T09:14:07;102126.31;;;19.28;55.19
4449;BME280;2237;51.870;6.160;2023-05-20T09:16:34;102110.06;;;19.39;56.01
4449;BME280;2237;51.870;6.160;2023-05-20T09:19:01;102117.25;;;19.58;56.98
4449;BME280;2237;51.870;6.160;2023-05-20T09:21:28;102114.13;;;19.70;55.30
4449;BME280;2237;51.870;6.160;2023-05-20T09:23:55;102120.97;;;19.76;55.24
4449;BME280;2237;51.870;6.160;2023-05-20T09:26:27;102110.56;;;19.71;55.02
4449;BME280;2237;51.870;6.160;2023-05-20T09:28:56;102110.94;;;19.84;53.74
4449;BME280;2237;51.870;6.160;2023-05-20T09:31:29;102113.06;;;19.74;53.90
4449;BME280;2237;51.870;6.160;2023-05-20T09:33:56;102108.78;;;19.72;54.11
4449;BME280;2237;51.870;6.160;2023-05-20T09:36:24;102104.69;;;19.85;53.88
4449;BME280;2237;51.870;6.160;2023-05-20T09:38:56;102099.75;;;19.99;55.05
4449;BME280;2237;51.870;6.160;2023-05-20T09:41:32;102094.75;;;19.92;53.52
4449;BME280;2237;51.870;6.160;2023-05-20T09:43:59;102100.19;;;20.09;53.54
4449;BME280;2237;51.870;6.160;2023-05-20T09:46:26;102103.91;;;20.05;53.12
4449;BME280;2237;51.870;6.160;2023-05-20T09:48:53;102096.19;;;20.20;52.46
4449;BME280;2237;51.870;6.160;2023-05-20T09:51:21;102101.00;;;20.33;52.43
4449;BME280;2237;51.870;6.160;2023-05-20T09:53:49;102087.44;;;20.40;51.73
4449;BME280;2237;51.870;6.160;2023-05-20T09:56:19;102097.16;;;20.60;51.32
4449;BME280;2237;51.870;6.160;2023-05-20T09:58:47;102090.88;;;20.62;51.49
4449;BME280;2237;51.870;6.160;2023-05-20T10:01:14;102077.16;;;20.53;51.01
4449;BME280;2237;51.870;6.160;2023-05-20T10:03:41;102087.72;;;20.54;50.27
4449;BME280;2237;51.870;6.160;2023-05-20T10:06:17;102088.16;;;20.64;50.11
4449;BME280;2237;51.870;6.160;2023-05-20T10:12:32;102090.91;;;21.01;49.47
4449;BME280;2237;51.870;6.160;2023-05-20T10:15:09;102076.97;;;20.96;49.81
4449;BME280;2237;51.870;6.160;2023-05-20T10:20:51;102078.97;;;21.11;48.41
4449;BME280;2237;51.870;6.160;2023-05-20T10:23:29;102069.75;;;21.00;48.48
4449;BME280;2237;51.870;6.160;2023-05-20T10:25:57;102066.59;;;21.12;48.74
4449;BME280;2237;51.870;6.160;2023-05-20T10:28:28;102065.34;;;21.19;48.13
4449;BME280;2237;51.870;6.160;2023-05-20T10:30:57;102060.38;;;21.13;48.16
4449;BME280;2237;51.870;6.160;2023-05-20T10:33:25;102057.63;;;21.14;47.49
4449;BME280;2237;51.870;6.160;2023-05-20T10:35:54;102055.28;;;21.27;48.15
4449;BME280;2237;51.870;6.160;2023-05-20T10:38:23;102059.75;;;21.44;47.40
4449;BME280;2237;51.870;6.160;2023-05-20T10:40:50;102050.06;;;21.61;46.98
4449;BME280;2237;51.870;6.160;2023-05-20T10:43:25;102030.22;;;21.87;46.72
4449;BME280;2237;51.870;6.160;2023-05-20T10:45:55;102040.41;;;21.77;46.42
4449;BME280;2237;51.870;6.160;2023-05-20T10:48:29;102054.63;;;21.76;45.82
4449;BME280;2237;51.870;6.160;2023-05-20T10:51:01;102055.16;;;22.19;44.63
4449;BME280;2237;51.870;6.160;2023-05-20T10:53:38;102049.94;;;22.67;44.27
4449;BME280;2237;51.870;6.160;2023-05-20T10:56:05;102051.63;;;22.85;43.04
4449;BME280;2237;51.870;6.160;2023-05-20T10:58:38;102064.63;;;23.23;42.95
4449;BME280;2237;51.870;6.160;2023-05-20T11:01:04;102057.44;;;23.25;42.09
4449;BME280;2237;51.870;6.160;2023-05-20T11:03:32;102053.41;;;23.65;41.10
4449;BME280;2237;51.870;6.160;2023-05-20T11:06:00;102063.63;;;24.17;39.88
4449;BME280;2237;51.870;6.160;2023-05-20T11:08:28;102053.47;;;24.38;39.02
4449;BME280;2237;51.870;6.160;2023-05-20T11:10:56;102052.47;;;24.55;38.70
4449;BME280;2237;51.870;6.160;2023-05-20T11:13:23;102052.34;;;24.42;39.46
4449;BME280;2237;51.870;6.160;2023-05-20T11:15:50;102050.00;;;24.52;39.25
4449;BME280;2237;51.870;6.160;2023-05-20T11:18:17;102041.19;;;24.22;39.75
4449;BME280;2237;51.870;6.160;2023-05-20T11:20:45;102039.34;;;23.92;39.51
4449;BME280;2237;51.870;6.160;2023-05-20T11:23:13;102035.53;;;23.82;39.01
4449;BME280;2237;51.870;6.160;2023-05-20T11:25:40;102028.97;;;23.58;39.04
4449;BME280;2237;51.870;6.160;2023-05-20T11:28:12;102041.16;;;23.62;40.08
4449;BME280;2237;51.870;6.160;2023-05-20T11:30:41;102037.88;;;24.02;39.37
4449;BME280;2237;51.870;6.160;2023-05-20T11:33:11;102031.91;;;24.57;38.27
4449;BME280;2237;51.870;6.160;2023-05-20T11:35:52;102030.50;;;24.94;37.74
4449;BME280;2237;51.870;6.160;2023-05-20T11:38:19;102031.91;;;24.99;37.84
4449;BME280;2237;51.870;6.160;2023-05-20T11:40:50;102031.25;;;25.37;36.97
4449;BME280;2237;51.870;6.160;2023-05-20T11:43:18;102037.91;;;25.58;35.80
4449;BME280;2237;51.870;6.160;2023-05-20T11:45:52;102037.56;;;25.76;36.29
4449;BME280;2237;51.870;6.160;2023-05-20T11:48:18;102036.84;;;25.60;36.14
4449;BME280;2237;51.870;6.160;2023-05-20T11:50:45;102035.66;;;25.38;36.83
4449;BME280;2237;51.870;6.160;2023-05-20T11:53:16;102033.03;;;25.64;36.16
4449;BME280;2237;51.870;6.160;2023-05-20T11:55:47;102034.56;;;25.81;35.34
4449;BME280;2237;51.870;6.160;2023-05-20T11:58:15;102033.94;;;25.37;35.75
4449;BME280;2237;51.870;6.160;2023-05-20T12:00:42;102028.66;;;25.08;36.15
4449;BME280;2237;51.870;6.160;2023-05-20T12:03:15;102023.91;;;24.99;36.69
4449;BME280;2237;51.870;6.160;2023-05-20T12:05:42;102009.34;;;24.77;36.58
4449;BME280;2237;51.870;6.160;2023-05-20T12:08:09;102019.34;;;25.15;36.26
4449;BME280;2237;51.870;6.160;2023-05-20T12:10:35;102011.03;;;25.20;36.45
4449;BME280;2237;51.870;6.160;2023-05-20T12:13:04;102017.66;;;25.00;37.09
4449;BME280;2237;51.870;6.160;2023-05-20T12:15:34;102010.19;;;25.05;37.01
4449;BME280;2237;51.870;6.160;2023-05-20T12:18:02;101998.09;;;25.41;36.84
4449;BME280;2237;51.870;6.160;2023-05-20T12:20:29;101999.16;;;25.11;36.74
4449;BME280;2237;51.870;6.160;2023-05-20T12:22:56;101994.22;;;25.32;37.02
4449;BME280;2237;51.870;6.160;2023-05-20T12:25:23;101992.69;;;25.69;36.21
4449;BME280;2237;51.870;6.160;2023-05-20T12:27:49;101994.75;;;25.51;36.68
4449;BME280;2237;51.870;6.160;2023-05-20T12:30:20;101991.16;;;26.04;36.30
4449;BME280;2237;51.870;6.160;2023-05-20T12:32:48;101983.59;;;26.49;34.86
4449;BME280;2237;51.870;6.160;2023-05-20T12:35:23;101974.75;;;27.10;34.20
4449;BME280;2237;51.870;6.160;2023-05-20T12:37:50;101968.31;;;27.12;33.66
4449;BME280;2237;51.870;6.160;2023-05-20T12:40:16;101963.50;;;27.28;33.47
4449;BME280;2237;51.870;6.160;2023-05-20T12:42:43;101970.56;;;27.42;33.48
4449;BME280;2237;51.870;6.160;2023-05-20T12:45:09;101958.63;;;27.70;32.57
4449;BME280;2237;51.870;6.160;2023-05-20T12:47:36;101959.91;;;27.99;32.13
4449;BME280;2237;51.870;6.160;2023-05-20T12:50:03;101961.78;;;28.10;32.41
4449;BME280;2237;51.870;6.160;2023-05-20T12:52:30;101970.03;;;27.61;32.03
4449;BME280;2237;51.870;6.160;2023-05-20T12:54:56;101968.66;;;27.55;31.58
4449;BME280;2237;51.870;6.160;2023-05-20T12:57:23;101972.78;;;27.48;32.34
4449;BME280;2237;51.870;6.160;2023-05-20T12:59:49;101975.16;;;27.64;32.80
4449;BME280;2237;51.870;6.160;2023-05-20T13:02:16;101958.22;;;27.63;31.71
4449;BME280;2237;51.870;6.160;2023-05-20T13:04:42;101958.38;;;27.73;31.87
4449;BME280;2237;51.870;6.160;2023-05-20T13:07:09;101967.00;;;27.65;31.77
4449;BME280;2237;51.870;6.160;2023-05-20T13:09:35;101966.69;;;27.81;31.73
4449;BME280;2237;51.870;6.160;2023-05-20T13:12:02;101955.88;;;27.93;32.41
4449;BME280;2237;51.870;6.160;2023-05-20T13:14:28;101956.19;;;28.13;31.80